createdAt,value
2022-10-16T00:01:27.148Z,0.98
2022-10-16T00:03:54.033Z,0.60
2022-10-16T00:06:22.302Z,0.80
2022-10-16T00:08:49.896Z,0.80
2022-10-16T00:11:20.753Z,0.80
2022-10-16T00:13:49.071Z,1.13
2022-10-16T00:16:16.172Z,0.73
2022-10-16T00:18:43.383Z,0.77
2022-10-16T00:21:16.803Z,0.68
2022-10-16T00:23:43.812Z,0.95
2022-10-16T00:26:13.164Z,0.77
2022-10-16T00:28:40.429Z,0.88
2022-10-16T00:31:09.597Z,0.90
2022-10-16T00:33:37.666Z,0.80
2022-10-16T00:36:05.188Z,0.50
2022-10-16T00:38:32.269Z,0.40
2022-10-16T00:40:58.816Z,0.68
2022-10-16T00:43:41.143Z,0.82
2022-10-16T00:46:28.650Z,0.98
2022-10-16T00:49:05.527Z,0.80
2022-10-16T00:51:36.583Z,1.00
2022-10-16T00:54:10.576Z,0.70
2022-10-16T00:56:37.033Z,0.60
2022-10-16T00:59:12.711Z,0.82
2022-10-16T01:01:39.193Z,0.40
2022-10-16T01:04:05.689Z,0.50
2022-10-16T01:06:52.595Z,0.80
2022-10-16T01:09:33.661Z,0.50
2022-10-16T01:12:38.804Z,0.52
2022-10-16T01:15:28.998Z,0.68
2022-10-16T01:18:21.171Z,0.40
2022-10-16T01:20:55.598Z,0.70
2022-10-16T01:23:25.185Z,0.90
2022-10-16T01:26:27.167Z,1.30
2022-10-16T01:29:30.719Z,0.93
2022-10-16T01:32:14.880Z,1.98
2022-10-16T01:35:14.039Z,0.50
2022-10-16T01:37:56.421Z,0.50
2022-10-16T01:40:26.462Z,0.43
2022-10-16T01:43:07.309Z,0.60
2022-10-16T01:45:35.551Z,0.60
2022-10-16T01:50:30.044Z,0.85
2022-10-16T01:52:59.579Z,0.80
2022-10-16T01:55:32.737Z,0.50
2022-10-16T01:58:02.236Z,0.70
2022-10-16T02:00:30.416Z,0.60
2022-10-16T02:05:38.730Z,0.52
2022-10-16T02:08:05.915Z,0.70
2022-10-16T02:10:33.456Z,0.57
2022-10-16T02:13:07.115Z,0.70
2022-10-16T02:15:33.658Z,0.70
2022-10-16T02:18:00.323Z,0.70
2022-10-16T02:20:33.483Z,0.60
2022-10-16T02:23:04.502Z,0.60
2022-10-16T02:25:35.725Z,0.95
2022-10-16T02:28:12.126Z,0.70
2022-10-16T02:30:44.704Z,0.45
2022-10-16T02:33:13.864Z,0.93
2022-10-16T02:35:41.666Z,1.08
2022-10-16T02:40:57.263Z,0.70
2022-10-16T02:43:23.769Z,0.70
2022-10-16T02:45:50.297Z,0.88
2022-10-16T02:48:16.757Z,0.70
2022-10-16T02:50:43.319Z,0.88
2022-10-16T02:53:09.805Z,0.50
2022-10-16T02:55:36.334Z,0.65
2022-10-16T02:58:02.855Z,0.85
2022-10-16T03:00:29.471Z,0.90
2022-10-16T03:02:56.050Z,0.52
2022-10-16T03:08:09.087Z,0.75
2022-10-16T03:10:35.612Z,0.40
2022-10-16T03:13:02.156Z,1.05
2022-10-16T03:15:28.744Z,0.52
2022-10-16T03:17:56.058Z,0.55
2022-10-16T03:20:22.535Z,0.80
2022-10-16T03:22:49.121Z,0.60
2022-10-16T03:25:15.624Z,0.77
2022-10-16T03:27:42.139Z,0.88
2022-10-16T03:30:09.517Z,0.82
2022-10-16T03:35:23.956Z,0.55
2022-10-16T03:40:18.106Z,0.52
2022-10-16T03:42:45.090Z,0.85
2022-10-16T03:45:12.276Z,0.40
2022-10-16T03:47:38.935Z,0.70
2022-10-16T03:50:06.176Z,0.60
2022-10-16T03:52:32.713Z,0.50
2022-10-16T03:54:59.276Z,1.00
2022-10-16T03:57:26.181Z,0.55
2022-10-16T03:59:52.874Z,0.60
2022-10-16T04:02:19.314Z,1.08
2022-10-16T04:04:45.930Z,0.70
2022-10-16T04:07:12.425Z,0.60
2022-10-16T04:09:38.959Z,0.68
2022-10-16T04:12:05.476Z,0.95
2022-10-16T04:14:31.985Z,0.77
2022-10-16T04:16:58.571Z,0.80
2022-10-16T04:19:25.132Z,0.77
2022-10-16T04:21:51.742Z,1.23
2022-10-16T04:24:18.189Z,0.60
2022-10-16T04:26:44.648Z,0.80
2022-10-16T04:29:11.154Z,0.68
2022-10-16T04:31:37.617Z,0.68
2022-10-16T04:34:04.090Z,0.85
2022-10-16T04:36:30.623Z,0.65
2022-10-16T04:38:57.357Z,0.45
2022-10-16T04:41:23.921Z,0.40
2022-10-16T04:43:50.574Z,0.73
2022-10-16T04:46:17.227Z,0.55
2022-10-16T04:48:43.827Z,0.63
2022-10-16T04:51:10.357Z,0.70
2022-10-16T04:53:36.884Z,0.47
2022-10-16T04:56:03.637Z,0.80
2022-10-16T04:58:30.297Z,0.65
2022-10-16T05:00:56.837Z,0.68
2022-10-16T05:03:23.466Z,0.65
2022-10-16T05:05:50.182Z,0.65
2022-10-16T05:08:17.580Z,0.77
2022-10-16T05:10:44.985Z,0.60
2022-10-16T05:13:11.915Z,0.63
2022-10-16T05:15:38.450Z,0.50
2022-10-16T05:18:05.123Z,0.73
2022-10-16T05:20:31.723Z,0.95
2022-10-16T05:22:58.422Z,0.70
2022-10-16T05:25:25.174Z,0.80
2022-10-16T05:27:51.716Z,0.77
2022-10-16T05:30:18.867Z,1.35
2022-10-16T05:32:49.459Z,0.80
2022-10-16T05:35:16.272Z,0.70
2022-10-16T05:37:43.319Z,0.50
2022-10-16T05:40:10.960Z,1.13
2022-10-16T05:42:37.535Z,0.70
2022-10-16T05:45:06.020Z,0.80
2022-10-16T05:47:32.611Z,0.88
2022-10-16T05:49:59.155Z,0.82
2022-10-16T05:52:25.791Z,0.70
2022-10-16T05:54:52.320Z,0.88
2022-10-16T05:57:18.854Z,0.60
2022-10-16T05:59:45.351Z,0.40
2022-10-16T06:02:14.314Z,0.85
2022-10-16T06:04:41.163Z,0.60
2022-10-16T06:07:07.764Z,0.95
2022-10-16T06:09:34.335Z,0.77
2022-10-16T06:12:00.803Z,0.55
2022-10-16T06:14:27.459Z,0.70
2022-10-16T06:16:54.033Z,0.80
2022-10-16T06:19:20.547Z,0.95
2022-10-16T06:21:47.012Z,0.75
2022-10-16T06:24:13.519Z,0.85
2022-10-16T06:26:40.047Z,0.88
2022-10-16T06:29:06.637Z,0.68
2022-10-16T06:31:33.306Z,1.05
2022-10-16T06:34:01.029Z,1.13
2022-10-16T06:36:28.023Z,0.80
2022-10-16T06:38:54.957Z,0.90
2022-10-16T06:41:23.268Z,0.70
2022-10-16T06:43:50.044Z,1.20
2022-10-16T06:46:19.069Z,1.17
2022-10-16T06:48:46.090Z,0.80
2022-10-16T06:51:16.949Z,0.75
2022-10-16T06:54:02.746Z,0.90
2022-10-16T06:56:30.258Z,0.70
2022-10-16T06:58:56.720Z,0.55
2022-10-16T07:01:25.041Z,1.15
2022-10-16T07:03:52.518Z,0.80
2022-10-16T07:06:21.217Z,1.48
2022-10-16T07:08:48.697Z,0.98
2022-10-16T07:11:20.089Z,0.93
2022-10-16T07:13:50.954Z,1.00
2022-10-16T07:16:23.154Z,0.82
2022-10-16T07:18:49.666Z,0.80
2022-10-16T07:21:18.989Z,1.65
2022-10-16T07:23:45.640Z,0.77
2022-10-16T07:26:12.574Z,1.10
2022-10-16T07:28:39.637Z,1.25
2022-10-16T07:31:08.664Z,0.70
2022-10-16T07:33:36.186Z,1.00
2022-10-16T07:36:02.871Z,0.70
2022-10-16T07:38:29.342Z,1.02
2022-10-16T07:41:07.569Z,1.00
2022-10-16T07:43:34.500Z,1.15
2022-10-16T07:46:04.012Z,0.77
2022-10-16T07:48:35.003Z,1.00
2022-10-16T07:51:06.854Z,1.13
2022-10-16T07:53:34.460Z,1.00
2022-10-16T07:56:03.753Z,1.10
2022-10-16T07:58:30.467Z,1.20
2022-10-16T08:00:57.874Z,1.45
2022-10-16T08:03:25.525Z,1.58
2022-10-16T08:05:52.810Z,0.88
2022-10-16T08:08:20.130Z,1.02
2022-10-16T08:10:46.860Z,1.45
2022-10-16T08:13:13.356Z,0.90
2022-10-16T08:15:39.912Z,1.20
2022-10-16T08:18:06.653Z,1.10
2022-10-16T08:20:34.412Z,1.00
2022-10-16T08:23:01.540Z,1.00
2022-10-16T08:25:29.070Z,0.90
2022-10-16T08:27:56.138Z,0.88
2022-10-16T08:30:24.784Z,0.88
2022-10-16T08:32:51.565Z,0.73
2022-10-16T08:35:18.170Z,0.77
2022-10-16T08:37:44.929Z,1.00
2022-10-16T08:40:21.452Z,1.33
2022-10-16T08:43:09.819Z,0.90
2022-10-16T08:45:49.470Z,1.05
2022-10-16T08:48:24.969Z,0.90
2022-10-16T08:50:53.105Z,1.02
2022-10-16T08:55:54.627Z,1.20
2022-10-16T08:58:29.002Z,0.98
2022-10-16T09:01:01.172Z,1.00
2022-10-16T09:04:13.515Z,1.00
2022-10-16T09:06:43.012Z,1.02
2022-10-16T09:09:46.707Z,1.25
2022-10-16T09:12:22.659Z,1.00
2022-10-16T09:15:17.739Z,1.25
2022-10-16T09:17:59.416Z,0.85
2022-10-16T09:20:43.769Z,1.00
2022-10-16T09:23:15.942Z,0.90
2022-10-16T09:25:46.506Z,1.15
2022-10-16T09:28:13.136Z,1.20
2022-10-16T09:30:39.816Z,1.55
2022-10-16T09:33:07.521Z,1.73
2022-10-16T09:35:39.038Z,1.80
2022-10-16T09:38:06.406Z,2.05
2022-10-16T09:40:39.099Z,2.20
2022-10-16T09:43:21.343Z,2.50
2022-10-16T09:45:55.573Z,2.67
2022-10-16T09:48:22.495Z,4.15
2022-10-16T09:51:00.304Z,4.20
2022-10-16T09:53:44.224Z,3.30
2022-10-16T09:56:14.063Z,4.40
2022-10-16T09:58:50.202Z,4.05
2022-10-16T10:01:16.726Z,3.92
2022-10-16T10:03:44.902Z,3.28
2022-10-16T10:06:30.472Z,3.08
2022-10-16T10:09:07.833Z,4.15
2022-10-16T10:11:49.729Z,4.25
2022-10-16T10:14:23.591Z,3.28
2022-10-16T10:16:52.384Z,4.05
2022-10-16T10:19:22.786Z,3.10
2022-10-16T10:21:51.005Z,2.55
2022-10-16T10:24:19.747Z,2.85
2022-10-16T10:27:06.720Z,2.90
2022-10-16T10:29:48.337Z,3.50
2022-10-16T10:32:29.038Z,3.45
2022-10-16T10:35:15.576Z,2.40
2022-10-16T10:37:45.099Z,3.38
2022-10-16T10:40:49.003Z,2.83
2022-10-16T10:43:34.387Z,2.72
2022-10-16T10:46:05.104Z,1.95
2022-10-16T10:48:48.201Z,2.05
2022-10-16T10:51:33.045Z,2.17
2022-10-16T10:54:20.764Z,2.25
2022-10-16T10:59:33.392Z,2.70
2022-10-16T11:02:02.975Z,2.30
2022-10-16T11:04:35.169Z,2.80
2022-10-16T11:07:27.968Z,2.22
2022-10-16T11:10:10.252Z,1.75
2022-10-16T11:12:43.421Z,1.95
2022-10-16T11:15:29.208Z,2.40
2022-10-16T11:18:04.259Z,2.20
2022-10-16T11:20:47.600Z,2.67
2022-10-16T11:23:22.992Z,1.98
2022-10-16T11:25:50.092Z,1.17
2022-10-16T11:28:32.742Z,0.70
2022-10-16T11:31:42.152Z,0.52
2022-10-16T11:34:14.716Z,0.25
2022-10-16T11:36:48.256Z,0.40
2022-10-16T11:39:28.490Z,0.80
2022-10-16T11:42:03.969Z,1.08
2022-10-16T11:44:45.464Z,0.50
2022-10-16T11:50:25.840Z,0.40
2022-10-16T11:53:06.230Z,0.45
2022-10-16T11:55:41.917Z,0.30
2022-10-16T11:58:27.052Z,0.40
2022-10-16T12:01:11.896Z,0.38
2022-10-16T12:04:03.870Z,0.40
2022-10-16T12:06:46.974Z,0.50
2022-10-16T12:09:21.047Z,0.30
2022-10-16T12:11:47.632Z,0.30
2022-10-16T12:14:14.105Z,0.20
2022-10-16T12:16:57.413Z,0.40
2022-10-16T12:19:26.353Z,0.30
2022-10-16T12:21:56.883Z,0.30
2022-10-16T12:24:30.784Z,0.25
2022-10-16T12:26:57.728Z,0.43
2022-10-16T12:29:41.925Z,0.30
2022-10-16T12:32:46.348Z,0.20
2022-10-16T12:35:32.858Z,0.20
2022-10-16T12:38:19.069Z,0.35
2022-10-16T12:40:55.189Z,0.30
2022-10-16T12:43:24.934Z,0.40
2022-10-16T12:46:06.992Z,0.40
2022-10-16T12:48:48.246Z,0.40
2022-10-16T12:51:29.407Z,0.30
2022-10-16T12:54:02.205Z,0.40
2022-10-16T12:56:52.696Z,0.40
2022-10-16T12:59:26.065Z,0.50
2022-10-16T13:02:17.659Z,0.30
2022-10-16T13:05:11.778Z,1.13
2022-10-16T13:08:06.871Z,0.30
2022-10-16T13:10:57.975Z,0.63
2022-10-16T13:14:00.188Z,0.40
2022-10-16T13:16:35.653Z,0.40
2022-10-16T13:19:33.983Z,0.30
2022-10-16T13:22:30.522Z,0.30
2022-10-16T13:25:09.015Z,0.40
2022-10-16T13:27:46.519Z,0.50
2022-10-16T13:30:26.855Z,0.45
2022-10-16T13:33:02.121Z,0.50
2022-10-16T13:35:31.415Z,0.40
2022-10-16T13:38:37.355Z,0.38
2022-10-16T13:41:14.291Z,0.52
2022-10-16T13:43:45.786Z,0.30
2022-10-16T13:46:23.622Z,0.30
2022-10-16T13:49:16.376Z,0.50
2022-10-16T13:51:55.308Z,0.30
2022-10-16T13:54:22.132Z,0.40
2022-10-16T13:56:57.781Z,0.88
2022-10-16T13:59:37.621Z,0.70
2022-10-16T14:02:20.490Z,0.50
2022-10-16T14:04:48.333Z,0.52
2022-10-16T14:07:21.563Z,0.57
2022-10-16T14:09:51.591Z,0.38
2022-10-16T14:12:18.222Z,0.55
2022-10-16T14:14:48.181Z,0.30
2022-10-16T14:17:16.902Z,0.45
2022-10-16T14:19:50.430Z,0.40
2022-10-16T14:22:26.185Z,0.60
2022-10-16T14:24:52.934Z,0.43
2022-10-16T14:27:30.038Z,0.50
2022-10-16T14:30:27.081Z,0.32
2022-10-16T14:33:02.020Z,0.50
2022-10-16T14:35:34.944Z,0.40
2022-10-16T14:38:03.929Z,0.40
2022-10-16T14:40:36.584Z,0.63
2022-10-16T14:43:05.128Z,0.52
2022-10-16T14:45:35.173Z,0.47
2022-10-16T14:48:06.044Z,0.63
2022-10-16T14:50:32.755Z,0.98
2022-10-16T14:52:59.675Z,1.45
2022-10-16T14:55:26.782Z,0.55
2022-10-16T14:57:56.928Z,0.60
2022-10-16T15:00:26.372Z,0.50
2022-10-16T15:02:52.875Z,0.45
2022-10-16T15:05:22.225Z,0.60
2022-10-16T15:07:49.395Z,0.60
2022-10-16T15:10:20.079Z,0.57
2022-10-16T15:12:46.881Z,0.40
2022-10-16T15:15:29.292Z,0.60
2022-10-16T15:17:57.428Z,0.60
2022-10-16T15:20:25.380Z,0.40
2022-10-16T15:22:52.152Z,0.50
2022-10-16T15:25:32.593Z,1.00
2022-10-16T15:28:00.648Z,0.40
2022-10-16T15:30:27.805Z,0.60
2022-10-16T15:32:54.777Z,0.50
2022-10-16T15:35:21.549Z,0.43
2022-10-16T15:37:48.895Z,0.75
2022-10-16T15:40:17.328Z,0.50
2022-10-16T15:42:44.440Z,0.43
2022-10-16T15:45:11.951Z,0.50
2022-10-16T15:47:41.220Z,0.63
2022-10-16T15:50:12.447Z,0.57
2022-10-16T15:52:39.871Z,0.90
2022-10-16T15:55:11.538Z,0.57
2022-10-16T15:57:39.184Z,0.70
2022-10-16T16:00:14.257Z,1.63
2022-10-16T16:02:42.802Z,6.03
2022-10-16T16:05:11.161Z,4.75
2022-10-16T16:07:39.470Z,2.03
2022-10-16T16:10:08.578Z,0.90
2022-10-16T16:12:35.315Z,0.80
2022-10-16T16:15:04.926Z,0.90
2022-10-16T16:17:33.949Z,1.17
2022-10-16T16:20:00.632Z,1.15
2022-10-16T16:22:27.575Z,0.85
2022-10-16T16:24:54.692Z,1.00
2022-10-16T16:27:21.218Z,1.38
2022-10-16T16:29:48.512Z,1.13
2022-10-16T16:32:15.144Z,2.22
2022-10-16T16:34:41.638Z,1.10
2022-10-16T16:37:08.744Z,1.08
2022-10-16T16:39:35.392Z,1.15
2022-10-16T16:42:02.011Z,0.85
2022-10-16T16:44:28.512Z,0.65
2022-10-16T16:46:55.065Z,0.80
2022-10-16T16:49:21.677Z,0.70
2022-10-16T16:51:48.355Z,0.90
2022-10-16T16:54:14.901Z,1.10
2022-10-16T16:56:42.392Z,0.73
2022-10-16T16:59:14.252Z,1.00
2022-10-16T17:01:41.062Z,2.72
2022-10-16T17:04:07.915Z,2.10
2022-10-16T17:06:34.749Z,1.80
2022-10-16T17:09:06.044Z,2.35
2022-10-16T17:11:32.807Z,1.60
2022-10-16T17:14:00.564Z,1.52
2022-10-16T17:16:33.381Z,2.15
2022-10-16T17:19:04.931Z,0.95
2022-10-16T17:21:31.542Z,1.27
2022-10-16T17:23:58.166Z,0.65
2022-10-16T17:26:25.465Z,1.30
2022-10-16T17:28:53.792Z,0.70
2022-10-16T17:31:28.814Z,1.10
2022-10-16T17:33:55.635Z,1.15
2022-10-16T17:36:23.403Z,1.30
2022-10-16T17:38:50.179Z,1.10
2022-10-16T17:41:20.063Z,1.23
2022-10-16T17:43:48.138Z,1.20
2022-10-16T17:48:45.116Z,1.13
2022-10-16T17:51:14.185Z,1.25
2022-10-16T17:53:41.599Z,2.13
2022-10-16T17:56:10.699Z,2.58
2022-10-16T17:58:37.278Z,2.20
2022-10-16T18:01:13.397Z,2.10
2022-10-16T18:03:39.936Z,2.50
2022-10-16T18:06:06.558Z,2.70
2022-10-16T18:08:33.371Z,2.83
2022-10-16T18:10:59.859Z,3.05
2022-10-16T18:13:26.358Z,2.65
2022-10-16T18:16:00.705Z,2.42
2022-10-16T18:18:29.593Z,2.67
2022-10-16T18:20:58.026Z,2.70
2022-10-16T18:23:24.690Z,2.70
2022-10-16T18:25:51.401Z,2.60
2022-10-16T18:28:18.344Z,2.05
2022-10-16T18:30:44.860Z,2.10
2022-10-16T18:33:11.490Z,2.20
2022-10-16T18:35:38.364Z,2.00
2022-10-16T18:38:04.816Z,3.05
2022-10-16T18:40:31.324Z,2.33
2022-10-16T18:42:57.799Z,1.70
2022-10-16T18:45:24.351Z,2.50
2022-10-16T18:47:50.839Z,2.13
2022-10-16T18:50:17.337Z,2.50
2022-10-16T18:52:49.807Z,1.83
2022-10-16T18:55:16.806Z,1.83
2022-10-16T18:57:43.366Z,1.95
2022-10-16T19:00:10.264Z,2.30
2022-10-16T19:02:36.792Z,1.83
2022-10-16T19:05:06.234Z,2.95
2022-10-16T19:07:33.043Z,1.73
2022-10-16T19:09:59.585Z,2.40
2022-10-16T19:12:26.383Z,1.83
2022-10-16T19:14:53.172Z,2.63
2022-10-16T19:17:19.720Z,2.00
2022-10-16T19:19:46.245Z,1.92
2022-10-16T19:22:12.713Z,2.15
2022-10-16T19:24:39.358Z,2.10
2022-10-16T19:27:06.749Z,2.47
2022-10-16T19:29:33.861Z,2.30
2022-10-16T19:32:02.719Z,1.80
2022-10-16T19:34:31.772Z,2.13
2022-10-16T19:36:58.280Z,1.60
2022-10-16T19:39:24.736Z,1.75
2022-10-16T19:41:51.439Z,1.70
2022-10-16T19:44:18.549Z,1.38
2022-10-16T19:46:45.301Z,1.55
2022-10-16T19:49:14.072Z,1.52
2022-10-16T19:51:40.583Z,1.40
2022-10-16T19:54:11.543Z,1.27
2022-10-16T19:56:38.334Z,1.60
2022-10-16T19:59:06.746Z,1.63
2022-10-16T20:01:34.470Z,1.35
2022-10-16T20:04:01.161Z,1.27
2022-10-16T20:06:27.678Z,1.33
2022-10-16T20:08:55.072Z,1.30
2022-10-16T20:11:30.519Z,1.50
2022-10-16T20:13:59.163Z,1.88
2022-10-16T20:16:27.149Z,1.90
2022-10-16T20:18:54.588Z,1.80
2022-10-16T20:21:24.631Z,1.60
2022-10-16T20:23:51.268Z,1.27
2022-10-16T20:26:19.865Z,1.88
2022-10-16T20:28:46.473Z,1.30
2022-10-16T20:31:18.865Z,1.48
2022-10-16T20:33:45.369Z,2.22
2022-10-16T20:36:16.376Z,1.52
2022-10-16T20:38:43.240Z,1.55
2022-10-16T20:41:10.726Z,1.73
2022-10-16T20:43:41.101Z,1.70
2022-10-16T20:46:08.627Z,1.63
2022-10-16T20:48:36.049Z,1.95
2022-10-16T20:51:16.611Z,1.77
2022-10-16T20:53:44.440Z,1.40
2022-10-16T20:56:10.917Z,1.45
2022-10-16T20:58:37.439Z,2.03
2022-10-16T21:01:16.417Z,1.67
2022-10-16T21:03:44.425Z,1.70
2022-10-16T21:06:11.183Z,1.70
2022-10-16T21:08:40.091Z,1.77
2022-10-16T21:11:26.796Z,1.38
2022-10-16T21:13:55.546Z,1.65
2022-10-16T21:16:22.407Z,1.10
2022-10-16T21:18:49.048Z,1.40
2022-10-16T21:21:24.593Z,1.42
2022-10-16T21:23:51.644Z,1.70
2022-10-16T21:26:19.554Z,1.50
2022-10-16T21:28:46.257Z,0.88
2022-10-16T21:31:20.234Z,1.15
2022-10-16T21:33:47.115Z,1.55
2022-10-16T21:36:25.864Z,1.52
2022-10-16T21:38:52.891Z,1.05
2022-10-16T21:41:20.707Z,1.63
2022-10-16T21:43:47.330Z,1.27
2022-10-16T21:46:14.703Z,1.67
2022-10-16T21:48:41.336Z,1.27
2022-10-16T21:51:07.932Z,1.10
2022-10-16T21:53:34.573Z,1.27
2022-10-16T21:56:01.051Z,1.67
2022-10-16T21:58:27.594Z,1.65
2022-10-16T22:00:54.095Z,1.58
2022-10-16T22:03:20.617Z,1.83
2022-10-16T22:05:47.079Z,1.77
2022-10-16T22:08:13.585Z,1.73
2022-10-16T22:10:40.103Z,1.52
2022-10-16T22:13:06.600Z,1.33
2022-10-16T22:15:33.081Z,1.45
2022-10-16T22:17:59.571Z,1.63
2022-10-16T22:20:26.078Z,1.85
2022-10-16T22:22:52.545Z,1.30
2022-10-16T22:25:19.104Z,1.30
2022-10-16T22:27:45.593Z,1.40
2022-10-16T22:30:12.078Z,1.25
2022-10-16T22:32:38.624Z,1.50
2022-10-16T22:35:05.544Z,1.30
2022-10-16T22:37:32.083Z,1.50
2022-10-16T22:40:00.935Z,1.15
2022-10-16T22:42:27.857Z,1.42
2022-10-16T22:44:54.431Z,1.52
2022-10-16T22:47:20.936Z,1.63
2022-10-16T22:49:47.431Z,1.65
2022-10-16T22:52:14.064Z,1.25
2022-10-16T22:54:40.515Z,1.30
2022-10-16T22:57:07.064Z,1.23
2022-10-16T22:59:33.679Z,1.90
2022-10-16T23:02:00.172Z,1.25
2022-10-16T23:04:26.648Z,1.60
2022-10-16T23:06:53.180Z,1.13
2022-10-16T23:09:19.655Z,1.40
2022-10-16T23:11:46.182Z,1.20
2022-10-16T23:14:12.811Z,1.20
2022-10-16T23:16:39.336Z,1.10
2022-10-16T23:19:05.889Z,1.48
2022-10-16T23:21:32.638Z,1.42
2022-10-16T23:23:59.160Z,1.20
2022-10-16T23:26:27.150Z,1.02
2022-10-16T23:28:56.720Z,1.02
2022-10-16T23:31:23.891Z,1.17
2022-10-16T23:33:50.507Z,1.15
2022-10-16T23:36:19.761Z,1.90
2022-10-16T23:38:47.681Z,1.35
2022-10-16T23:41:15.132Z,1.40
2022-10-16T23:43:42.087Z,1.00
2022-10-16T23:46:10.669Z,1.08
2022-10-16T23:48:37.352Z,1.33
2022-10-16T23:51:04.911Z,1.17
2022-10-16T23:53:31.400Z,1.77
2022-10-16T23:55:58.140Z,1.27
2022-10-16T23:58:24.717Z,1.40
